Time;durP1;ratioP1;P1;durP2;ratioP2;P2;SDS_P1;SDS_P2;PMS_P1;PMS_P2;Temp;Humidity;BMP_temperature;BMP_pressure;BME280_temperature;BME280_humidity;BME280_pressure;Samples;Min_cycle;Max_cycle;Signal;HPM_P1;HPM_P2
2022/03/03 00:00:01;;;;;;;16.07;11.07;;;2.40;59.20;;;;;;5014093;28;20589;-48
2022/03/03 00:02:26;;;;;;;13.20;10.20;;;2.40;59.10;;;;;;5013890;28;20419;-45
2022/03/03 00:04:52;;;;;;;14.67;10.57;;;2.40;59.30;;;;;;5014056;28;20238;-46
2022/03/03 00:07:17;;;;;;;14.40;10.20;;;2.40;59.70;;;;;;5013312;28;20193;-48
2022/03/03 00:09:43;;;;;;;13.83;10.27;;;2.30;59.70;;;;;;5013927;28;20177;-47
2022/03/03 00:12:09;;;;;;;14.40;10.13;;;2.30;60.00;;;;;;5015158;28;20292;-47
2022/03/03 00:14:36;;;;;;;13.80;9.97;;;2.20;60.10;;;;;;5013542;28;20452;-47
2022/03/03 00:17:01;;;;;;;14.07;10.03;;;2.20;60.10;;;;;;5013368;28;20212;-47
2022/03/03 00:19:27;;;;;;;14.90;10.33;;;2.10;59.90;;;;;;5013697;28;20418;-47
2022/03/03 00:21:52;;;;;;;15.90;11.20;;;2.10;60.10;;;;;;5013364;28;20176;-49
2022/03/03 00:24:18;;;;;;;13.40;10.73;;;2.00;60.60;;;;;;5013695;28;20172;-49
2022/03/03 00:26:43;;;;;;;14.33;10.80;;;2.00;61.10;;;;;;5013308;28;20203;-48
2022/03/03 00:29:09;;;;;;;14.43;10.67;;;2.00;61.90;;;;;;5013399;28;20177;-46
2022/03/03 00:31:34;;;;;;;13.97;10.23;;;2.00;61.60;;;;;;5013463;28;20176;-47
2022/03/03 00:34:00;;;;;;;14.33;10.43;;;2.00;61.10;;;;;;5013427;28;20207;-47
2022/03/03 00:36:27;;;;;;;13.97;10.00;;;2.40;61.50;;;;;;5013038;28;20277;-45
2022/03/03 00:38:52;;;;;;;12.53;9.43;;;2.00;61.50;;;;;;5013388;28;20251;-47
2022/03/03 00:41:18;;;;;;;13.10;9.70;;;2.00;61.10;;;;;;5013368;28;20490;-49
2022/03/03 00:43:44;;;;;;;15.07;10.17;;;2.00;61.50;;;;;;5013178;28;20176;-48
2022/03/03 00:46:09;;;;;;;15.13;10.50;;;2.00;61.10;;;;;;5012540;28;20565;-49
2022/03/03 00:48:35;;;;;;;15.57;11.70;;;1.90;61.00;;;;;;5013212;28;20620;-49
2022/03/03 00:51:06;;;;;;;14.97;10.30;;;1.90;61.00;;;;;;5013119;28;20175;-49
2022/03/03 00:53:33;;;;;;;13.40;10.30;;;1.90;62.30;;;;;;5013011;28;20704;-48
2022/03/03 00:55:58;;;;;;;14.03;10.27;;;1.80;61.80;;;;;;5011416;28;20454;-46
2022/03/03 00:58:24;;;;;;;13.83;10.43;;;1.80;62.10;;;;;;5012337;28;20491;-49
2022/03/03 01:00:49;;;;;;;13.93;10.30;;;1.80;62.00;;;;;;5012108;28;20200;-47
2022/03/03 01:03:15;;;;;;;12.90;10.33;;;1.80;62.10;;;;;;5013033;28;20187;-47
2022/03/03 01:05:40;;;;;;;14.20;10.80;;;1.70;63.00;;;;;;5012582;28;20188;-50
2022/03/03 01:08:10;;;;;;;13.50;9.20;;;1.70;63.50;;;;;;5012872;28;20172;-50
2022/03/03 01:10:39;;;;;;;13.73;9.47;;;1.60;63.60;;;;;;5012897;28;20214;-46
2022/03/03 01:13:05;;;;;;;14.00;9.77;;;1.70;63.80;;;;;;5012669;28;20461;-45
2022/03/03 01:15:30;;;;;;;12.13;9.43;;;1.60;64.70;;;;;;5011165;28;21000;-46
2022/03/03 01:17:56;;;;;;;12.27;9.03;;;0.20;63.10;;;;;;5012661;28;20168;-51
2022/03/03 01:20:21;;;;;;;11.37;8.67;;;1.50;64.50;;;;;;5012182;28;20526;-49
2022/03/03 01:22:47;;;;;;;11.60;7.73;;;1.50;64.60;;;;;;5012701;28;20279;-47
2022/03/03 01:25:13;;;;;;;11.63;8.53;;;1.40;70.80;;;;;;5012558;28;20694;-47
2022/03/03 01:27:39;;;;;;;14.40;8.90;;;1.40;64.60;;;;;;5012307;28;20177;-51
2022/03/03 01:30:07;;;;;;;13.97;9.40;;;1.40;64.40;;;;;;5012341;28;20175;-48
2022/03/03 01:32:32;;;;;;;12.63;9.03;;;1.40;64.30;;;;;;5012474;28;20191;-49
2022/03/03 01:34:58;;;;;;;12.87;9.60;;;1.50;64.50;;;;;;5012463;28;21077;-48
2022/03/03 01:37:23;;;;;;;12.20;9.17;;;1.50;64.80;;;;;;5012147;28;20565;-48
2022/03/03 01:39:49;;;;;;;12.30;9.00;;;1.50;65.20;;;;;;5012269;28;20168;-48
2022/03/03 01:42:16;;;;;;;13.27;8.97;;;1.40;65.50;;;;;;5012343;28;20168;-49
2022/03/03 01:44:43;;;;;;;12.67;8.97;;;1.40;65.30;;;;;;5012309;28;20169;-48
2022/03/03 01:47:20;;;;;;;13.27;9.40;;;1.40;65.60;;;;;;5011898;28;20431;-50
2022/03/03 01:49:47;;;;;;;13.20;9.17;;;1.30;65.30;;;;;;5012264;28;20403;-51
2022/03/03 01:52:12;;;;;;;14.53;9.93;;;1.30;66.10;;;;;;5012247;28;20974;-47
2022/03/03 01:54:38;;;;;;;13.37;9.80;;;1.30;66.40;;;;;;5012207;28;20447;-51
2022/03/03 01:57:06;;;;;;;15.53;10.13;;;1.30;66.90;;;;;;5011591;28;20208;-49
2022/03/03 01:59:31;;;;;;;11.50;8.33;;;1.30;66.90;;;;;;5012084;28;20412;-44
2022/03/03 02:01:57;;;;;;;13.00;8.30;;;1.30;66.70;;;;;;5012145;28;20410;-50
2022/03/03 02:04:23;;;;;;;11.43;7.90;;;1.30;66.70;;;;;;5012085;28;20173;-48
2022/03/03 02:06:49;;;;;;;10.00;7.23;;;1.20;71.00;;;;;;5011718;28;20824;-48
2022/03/03 02:09:15;;;;;;;11.23;8.43;;;1.20;66.10;;;;;;5012029;28;20176;-48
2022/03/03 02:11:41;;;;;;;11.27;8.73;;;1.20;66.00;;;;;;5012071;28;20415;-51
2022/03/03 02:14:06;;;;;;;11.47;8.73;;;1.20;65.80;;;;;;5010605;28;20470;-48
2022/03/03 02:16:32;;;;;;;11.43;8.23;;;1.20;66.40;;;;;;5011951;28;20220;-48
2022/03/03 02:18:58;;;;;;;11.97;8.80;;;1.20;66.30;;;;;;5011905;28;20169;-47
2022/03/03 02:21:24;;;;;;;11.30;8.47;;;1.20;66.30;;;;;;5012001;28;20175;-47
2022/03/03 02:23:50;;;;;;;10.67;7.80;;;1.20;66.40;;;;;;5011881;28;20256;-49
2022/03/03 02:26:20;;;;;;;9.30;7.03;;;1.10;66.30;;;;;;5011504;28;20199;-50
2022/03/03 02:28:47;;;;;;;9.97;7.50;;;1.00;66.60;;;;;;5013829;28;20548;-47
2022/03/03 02:31:13;;;;;;;11.87;7.70;;;1.00;66.60;;;;;;5014977;28;20423;-50
2022/03/03 02:33:39;;;;;;;9.27;6.80;;;1.00;66.80;;;;;;5015633;28;20454;-47
2022/03/03 02:36:16;;;;;;;11.10;7.93;;;1.00;66.60;;;;;;5015356;28;20443;-50
2022/03/03 02:38:41;;;;;;;10.93;7.47;;;1.10;66.40;;;;;;5015580;28;20214;-47
2022/03/03 02:41:07;;;;;;;10.70;7.80;;;1.10;66.20;;;;;;5015603;28;20411;-51
2022/03/03 02:43:32;;;;;;;9.43;7.47;;;1.10;66.50;;;;;;5015473;28;20257;-45
2022/03/03 02:45:58;;;;;;;11.10;7.93;;;1.20;66.80;;;;;;5015261;28;20196;-47
2022/03/03 02:48:24;;;;;;;10.57;7.43;;;1.10;67.00;;;;;;5015447;28;20173;-46
2022/03/03 02:50:49;;;;;;;11.70;7.30;;;1.10;67.10;;;;;;5015443;28;20541;-50
2022/03/03 02:53:15;;;;;;;8.90;6.93;;;1.10;67.30;;;;;;5015198;28;20660;-47
2022/03/03 02:55:40;;;;;;;8.80;7.13;;;1.10;67.40;;;;;;5014917;28;20580;-47
2022/03/03 02:58:06;;;;;;;11.47;7.60;;;1.00;67.90;;;;;;5015210;28;20187;-48
2022/03/03 03:00:41;;;;;;;9.67;7.40;;;0.90;68.00;;;;;;5015311;28;20184;-47
2022/03/03 03:03:06;;;;;;;11.80;7.53;;;0.90;68.00;;;;;;5015143;28;20187;-49
2022/03/03 03:05:32;;;;;;;11.07;7.73;;;0.90;67.70;;;;;;5014765;28;20976;-44
2022/03/03 03:07:58;;;;;;;8.87;6.83;;;0.90;67.50;;;;;;5015039;28;20175;-44
2022/03/03 03:10:24;;;;;;;9.37;6.70;;;;;;;;;;5015193;28;20169;-50
2022/03/03 03:12:49;;;;;;;9.73;6.63;;;0.90;67.00;;;;;;5014911;28;20260;-48
2022/03/03 03:15:15;;;;;;;9.60;6.57;;;0.90;73.30;;;;;;5014937;28;20486;-50
2022/03/03 03:17:41;;;;;;;8.80;6.63;;;0.90;67.40;;;;;;5014737;28;20239;-52
2022/03/03 03:20:08;;;;;;;9.53;7.03;;;0.90;67.50;;;;;;5014838;28;20912;-49
2022/03/03 03:22:35;;;;;;;8.80;6.67;;;0.90;67.70;;;;;;5014781;28;20180;-49
2022/03/03 03:25:01;;;;;;;9.57;7.13;;;0.80;68.00;;;;;;5014765;28;20964;-51
2022/03/03 03:27:27;;;;;;;8.13;6.43;;;0.80;68.40;;;;;;5014386;28;20431;-49
2022/03/03 03:29:52;;;;;;;10.03;7.63;;;0.80;68.80;;;;;;5014721;28;20491;-46
2022/03/03 03:32:18;;;;;;;10.10;7.23;;;0.80;69.00;;;;;;5014827;28;20214;-50
2022/03/03 03:34:43;;;;;;;9.10;6.90;;;0.70;69.00;;;;;;5014550;28;20362;-47
2022/03/03 03:37:09;;;;;;;10.97;6.90;;;0.70;69.10;;;;;;5014255;28;20197;-49
2022/03/03 03:39:35;;;;;;;12.33;7.50;;;0.70;69.30;;;;;;5014548;28;20181;-47
2022/03/03 03:42:00;;;;;;;8.97;6.50;;;0.70;69.20;;;;;;5014043;28;20554;-47
2022/03/03 03:44:26;;;;;;;10.93;7.20;;;0.80;69.10;;;;;;5014228;28;20290;-45
2022/03/03 03:46:51;;;;;;;9.83;7.10;;;0.70;68.90;;;;;;5014036;28;20294;-48
2022/03/03 03:49:17;;;;;;;10.90;7.20;;;0.80;69.30;;;;;;5013052;28;20208;-49
2022/03/03 03:51:43;;;;;;;10.30;7.30;;;0.80;69.20;;;;;;5014318;28;20549;-47
2022/03/03 03:54:08;;;;;;;9.87;7.03;;;0.70;69.30;;;;;;5014306;28;20181;-47
2022/03/03 03:56:34;;;;;;;9.40;6.97;;;0.70;69.50;;;;;;5135731;22;20239;-50
2022/03/03 03:58:59;;;;;;;9.50;6.70;;;0.60;69.40;;;;;;5012839;28;20648;-49
2022/03/03 04:01:26;;;;;;;9.63;7.13;;;0.60;69.80;;;;;;5013442;28;20180;-46
2022/03/03 04:03:53;;;;;;;11.30;7.37;;;0.60;70.00;;;;;;5013713;28;20199;-48
2022/03/03 04:06:19;;;;;;;9.70;7.20;;;0.60;70.10;;;;;;5008473;28;20924;-47
2022/03/03 04:08:44;;;;;;;9.13;7.03;;;0.50;70.00;;;;;;4994147;28;20421;-52
2022/03/03 04:11:10;;;;;;;11.20;7.03;;;0.50;70.60;;;;;;4994289;28;20170;-47
2022/03/03 04:13:35;;;;;;;10.13;7.37;;;0.50;70.60;;;;;;4991695;28;20688;-46
2022/03/03 04:16:01;;;;;;;9.83;7.07;;;0.50;76.90;;;;;;4989423;28;20174;-48
2022/03/03 04:18:26;;;;;;;9.97;7.97;;;0.40;70.80;;;;;;4993983;28;20178;-47
2022/03/03 04:20:52;;;;;;;9.40;7.20;;;0.30;70.90;;;;;;4994062;28;20634;-47
2022/03/03 04:23:19;;;;;;;10.83;8.20;;;0.40;71.10;;;;;;4994087;28;20587;-48
2022/03/03 04:25:44;;;;;;;11.47;7.90;;;0.40;76.70;;;;;;4993681;28;20647;-47
2022/03/03 04:28:10;;;;;;;10.83;7.83;;;0.40;70.80;;;;;;4993997;28;20413;-47
2022/03/03 04:30:35;;;;;;;10.63;7.57;;;0.40;70.70;;;;;;4991877;28;20178;-49
2022/03/03 04:33:01;;;;;;;11.90;8.30;;;0.40;70.80;;;;;;4989525;28;20173;-48
2022/03/03 04:35:28;;;;;;;10.73;7.93;;;0.30;71.40;;;;;;4993557;28;20755;-48
2022/03/03 04:37:54;;;;;;;12.37;8.97;;;0.30;70.80;;;;;;4993620;28;20579;-47
2022/03/03 04:40:19;;;;;;;11.37;8.40;;;0.20;70.90;;;;;;4993668;28;20506;-46
2022/03/03 04:42:45;;;;;;;10.90;8.23;;;0.20;72.00;;;;;;4993628;28;20658;-46
2022/03/03 04:45:11;;;;;;;11.87;8.43;;;0.20;73.10;;;;;;4993653;28;20256;-47
2022/03/03 04:47:37;;;;;;;12.87;8.80;;;;;;;;;;4993328;28;20189;-45
2022/03/03 04:50:04;;;;;;;11.13;8.40;;;0.20;72.30;;;;;;4993556;28;20568;-49
2022/03/03 04:52:29;;;;;;;11.17;8.23;;;0.10;73.30;;;;;;4993701;28;20560;-52
2022/03/03 04:54:55;;;;;;;11.90;8.90;;;;;;;;;;4992668;28;20456;-49
2022/03/03 04:57:21;;;;;;;11.57;8.50;;;0.10;73.00;;;;;;4992880;28;20212;-46
2022/03/03 04:59:47;;;;;;;13.03;8.33;;;0.10;73.80;;;;;;4993324;28;20174;-48
2022/03/03 05:02:13;;;;;;;11.03;7.70;;;;;;;;;;4993502;28;20885;-49
2022/03/03 05:04:39;;;;;;;9.80;7.70;;;0.10;72.80;;;;;;4991862;28;20300;-50
2022/03/03 05:07:04;;;;;;;11.60;7.70;;;0.10;73.10;;;;;;4989017;28;20468;-47
2022/03/03 05:09:30;;;;;;;10.73;7.27;;;0.10;73.50;;;;;;4992949;28;20181;-45
2022/03/03 05:11:57;;;;;;;10.33;7.73;;;0.00;73.50;;;;;;4993047;28;20221;-48
2022/03/03 05:14:23;;;;;;;16.97;12.13;;;0.00;73.70;;;;;;4991675;28;20186;-48
2022/03/03 05:16:48;;;;;;;20.13;16.57;;;0.00;73.60;;;;;;4992596;28;20436;-47
2022/03/03 05:19:14;;;;;;;17.50;12.40;;;0.00;74.00;;;;;;4992816;28;20185;-48
2022/03/03 05:21:39;;;;;;;13.70;9.77;;;0.00;72.80;;;;;;4992527;28;20185;-48
2022/03/03 05:24:05;;;;;;;12.60;8.60;;;0.00;73.00;;;;;;4992758;28;20201;-50
2022/03/03 05:26:31;;;;;;;11.07;8.37;;;0.00;73.60;;;;;;4992408;28;20185;-48
2022/03/03 05:28:56;;;;;;;10.20;7.40;;;0.00;73.40;;;;;;4992736;28;20193;-48
2022/03/03 05:31:22;;;;;;;9.73;7.20;;;0.00;73.60;;;;;;4992367;28;20610;-48
2022/03/03 05:33:47;;;;;;;12.43;7.93;;;0.00;74.00;;;;;;4992236;28;20180;-46
2022/03/03 05:36:13;;;;;;;10.40;7.97;;;0.00;74.10;;;;;;4992014;28;20235;-47
2022/03/03 05:38:40;;;;;;;9.33;7.10;;;-0.10;74.10;;;;;;4992335;28;20204;-48
2022/03/03 05:41:06;;;;;;;11.63;7.83;;;-0.10;74.50;;;;;;4992448;28;20169;-50
2022/03/03 05:43:33;;;;;;;13.67;8.60;;;-0.10;75.00;;;;;;4992375;28;20837;-48
2022/03/03 05:45:59;;;;;;;11.47;7.63;;;0.00;82.10;;;;;;4992073;28;20408;-47
2022/03/03 05:48:26;;;;;;;11.53;7.33;;;-0.10;75.60;;;;;;4991298;28;20421;-50
2022/03/03 05:50:52;;;;;;;10.50;8.00;;;-0.20;76.00;;;;;;4992436;28;20413;-45
2022/03/03 05:53:18;;;;;;;10.93;7.80;;;-0.20;76.50;;;;;;4992430;28;20495;-45
2022/03/03 05:55:51;;;;;;;10.93;7.60;;;-0.20;75.90;;;;;;4992076;28;20408;-50
2022/03/03 05:58:19;;;;;;;10.33;7.67;;;-0.20;76.30;;;;;;4992213;28;20489;-46
2022/03/03 06:00:47;;;;;;;10.23;7.43;;;-0.30;76.80;;;;;;4992242;28;20434;-48
2022/03/03 06:03:14;;;;;;;10.17;7.60;;;-0.20;76.80;;;;;;4992195;28;20488;-50
2022/03/03 06:05:42;;;;;;;10.67;7.00;;;-0.10;75.60;;;;;;4991602;28;20499;-49
2022/03/03 06:08:12;;;;;;;10.43;7.23;;;-0.10;76.10;;;;;;4992024;28;20432;-46
2022/03/03 06:10:50;;;;;;;11.90;7.77;;;-0.10;76.20;;;;;;4992309;28;20408;-52
2022/03/03 06:13:15;;;;;;;11.80;8.07;;;-0.10;76.00;;;;;;4989246;28;20798;-45
2022/03/03 06:15:44;;;;;;;10.87;8.20;;;0.00;76.30;;;;;;4991607;28;20474;-49
2022/03/03 06:18:11;;;;;;;11.40;8.27;;;0.00;76.80;;;;;;4992137;28;20669;-51
2022/03/03 06:20:37;;;;;;;11.73;8.10;;;0.10;76.80;;;;;;4992235;28;20873;-47
2022/03/03 06:23:03;;;;;;;12.60;8.50;;;0.10;76.70;;;;;;4992309;28;20426;-48
2022/03/03 06:25:29;;;;;;;13.63;8.37;;;0.20;76.80;;;;;;4992237;28;20464;-52
2022/03/03 06:27:54;;;;;;;12.83;8.23;;;0.20;76.30;;;;;;4991804;28;20221;-47
2022/03/03 06:30:20;;;;;;;12.10;8.43;;;0.20;76.50;;;;;;4992137;28;20169;-47
2022/03/03 06:32:45;;;;;;;11.60;8.53;;;0.30;77.20;;;;;;4992138;28;20184;-47
2022/03/03 06:35:11;;;;;;;11.20;7.87;;;0.30;77.10;;;;;;4990684;28;20184;-49
2022/03/03 06:37:36;;;;;;;11.43;8.00;;;0.30;77.00;;;;;;4991809;28;20853;-46
2022/03/03 06:40:03;;;;;;;11.73;7.90;;;0.40;77.10;;;;;;4991981;28;20209;-51
2022/03/03 06:42:29;;;;;;;9.03;7.53;;;0.40;77.20;;;;;;4991394;28;20185;-47
2022/03/03 06:44:54;;;;;;;9.53;7.17;;;0.40;77.10;;;;;;4991759;28;20548;-49
2022/03/03 06:47:22;;;;;;;10.97;7.50;;;0.40;77.10;;;;;;4991632;28;20523;-50
2022/03/03 06:49:48;;;;;;;12.77;7.87;;;0.50;77.30;;;;;;4991943;28;20177;-48
2022/03/03 06:52:16;;;;;;;10.37;7.20;;;0.50;77.30;;;;;;4991873;28;20452;-49
2022/03/03 06:54:45;;;;;;;11.13;7.13;;;0.60;76.60;;;;;;4990639;28;20420;-48
2022/03/03 06:57:12;;;;;;;8.60;6.77;;;;;;;;;;4991350;28;20559;-48
2022/03/03 06:59:39;;;;;;;8.50;6.83;;;0.70;74.80;;;;;;4991661;28;20416;-48
2022/03/03 07:02:04;;;;;;;9.53;7.10;;;0.80;74.40;;;;;;5006864;28;20905;-48
2022/03/03 07:04:33;;;;;;;8.60;6.60;;;0.90;74.00;;;;;;4991818;28;20448;-50
2022/03/03 07:07:00;;;;;;;9.20;7.00;;;0.90;73.00;;;;;;4991277;28;20728;-46
2022/03/03 07:09:25;;;;;;;9.73;6.93;;;1.10;72.30;;;;;;4991567;28;20940;-45
2022/03/03 07:11:51;;;;;;;9.97;7.37;;;1.30;71.60;;;;;;4991544;28;20416;-48
2022/03/03 07:14:18;;;;;;;11.30;7.50;;;1.40;71.40;;;;;;4991694;28;20189;-46
2022/03/03 07:17:03;;;;;;;11.57;7.53;;;1.60;71.00;;;;;;4991431;28;20213;-52
2022/03/03 07:20:05;;;;;;;9.30;6.40;;;2.00;79.30;;;;;;4994592;28;20435;-49
2022/03/03 07:22:45;;;;;;;9.70;7.03;;;2.00;70.50;;;;;;4986138;28;20469;-48
2022/03/03 07:25:14;;;;;;;9.80;6.77;;;2.40;78.60;;;;;;4994865;28;20513;-49
2022/03/03 07:27:41;;;;;;;10.30;7.47;;;2.40;70.00;;;;;;4994453;28;20428;-52
2022/03/03 07:30:13;;;;;;;12.73;8.47;;;2.50;69.40;;;;;;4994556;28;20420;-51
2022/03/03 07:33:04;;;;;;;73.13;37.90;;;2.70;68.90;;;;;;4994619;28;20797;-51
2022/03/03 07:35:34;;;;;;;153.87;72.87;;;2.90;68.00;;;;;;4994952;28;20551;-54
2022/03/03 07:38:04;;;;;;;13.03;9.67;;;3.10;67.20;;;;;;4995122;28;20945;-52
2022/03/03 07:40:31;;;;;;;11.47;7.97;;;3.30;65.70;;;;;;4994675;28;20413;-51
2022/03/03 07:42:58;;;;;;;18.33;11.90;;;3.40;65.70;;;;;;4994811;28;20419;-51
2022/03/03 07:45:26;;;;;;;21.67;14.33;;;3.50;66.60;;;;;;4994735;28;20490;-50
2022/03/03 07:47:55;;;;;;;14.13;10.43;;;3.60;66.60;;;;;;4994477;28;20193;-52
2022/03/03 07:50:21;;;;;;;12.40;7.97;;;3.80;65.60;;;;;;4994182;28;20181;-51
2022/03/03 07:52:49;;;;;;;10.43;7.60;;;4.00;64.90;;;;;;4994509;28;20187;-52
2022/03/03 07:55:15;;;;;;;9.73;7.50;;;4.10;63.80;;;;;;4994608;28;20271;-53
2022/03/03 07:57:52;;;;;;;15.07;8.60;;;4.20;62.80;;;;;;4994103;28;20208;-52
2022/03/03 08:00:18;;;;;;;9.57;7.47;;;4.10;63.10;;;;;;4994664;28;20212;-50
2022/03/03 08:02:45;;;;;;;12.57;7.63;;;4.20;63.80;;;;;;4994771;28;20560;-51
2022/03/03 08:05:11;;;;;;;11.73;8.00;;;4.20;68.10;;;;;;4994302;28;20219;-51
2022/03/03 08:07:44;;;;;;;9.77;7.93;;;4.20;62.40;;;;;;4994240;28;20205;-49
2022/03/03 08:10:12;;;;;;;10.40;8.13;;;4.00;73.10;;;;;;4994286;28;20177;-51
2022/03/03 08:12:39;;;;;;;10.40;7.90;;;4.30;63.20;;;;;;4994588;28;20181;-49
2022/03/03 08:15:06;;;;;;;12.63;8.50;;;4.40;63.40;;;;;;4994253;28;20239;-51
2022/03/03 08:17:35;;;;;;;12.30;8.37;;;4.70;75.40;;;;;;4994006;28;20205;-53
2022/03/03 08:20:06;;;;;;;13.30;8.80;;;4.90;75.30;;;;;;4992928;28;20209;-51
2022/03/03 08:22:33;;;;;;;10.97;8.40;;;5.20;76.30;;;;;;4994276;28;20543;-51
2022/03/03 08:24:59;;;;;;;10.73;7.60;;;5.50;64.20;;;;;;4993889;28;20618;-53
2022/03/03 08:27:26;;;;;;;9.97;8.00;;;5.60;62.50;;;;;;4992570;28;20200;-55
2022/03/03 08:29:52;;;;;;;12.17;7.97;;;5.60;63.10;;;;;;4989445;28;20185;-49
2022/03/03 08:32:19;;;;;;;10.13;8.20;;;5.60;60.30;;;;;;4991754;28;20190;-54
2022/03/03 08:34:57;;;;;;;11.50;9.00;;;5.50;59.50;;;;;;4993767;28;20195;-49
2022/03/03 08:37:34;;;;;;;14.03;8.43;;;5.60;63.20;;;;;;4993632;28;20340;-50
2022/03/03 08:40:03;;;;;;;10.90;9.13;;;5.80;72.40;;;;;;4993992;28;20188;-56
2022/03/03 08:42:34;;;;;;;13.47;9.43;;;6.00;62.90;;;;;;4993839;28;20184;-53
2022/03/03 08:45:03;;;;;;;16.20;10.00;;;6.30;64.40;;;;;;4993648;28;20228;-55
2022/03/03 08:47:29;;;;;;;13.97;9.73;;;6.50;65.40;;;;;;4993167;28;20201;-54
2022/03/03 08:50:14;;;;;;;13.57;9.23;;;6.80;63.80;;;;;;4993322;28;20253;-55
2022/03/03 08:52:42;;;;;;;12.97;9.00;;;7.40;64.20;;;;;;4993683;28;20173;-55
2022/03/03 08:55:10;;;;;;;12.40;8.80;;;8.00;61.80;;;;;;4993577;28;20697;-52
2022/03/03 08:57:37;;;;;;;10.87;8.30;;;9.70;54.70;;;;;;4991957;28;20220;-52
2022/03/03 09:00:10;;;;;;;13.00;9.03;;;9.70;55.10;;;;;;4993385;28;20631;-52
2022/03/03 09:02:36;;;;;;;11.87;9.07;;;10.30;52.90;;;;;;4993237;28;20701;-50
2022/03/03 09:05:03;;;;;;;11.63;9.80;;;11.10;50.60;;;;;;4992973;28;20204;-54
2022/03/03 09:07:30;;;;;;;12.30;9.63;;;12.00;48.90;;;;;;4993054;28;20618;-55
2022/03/03 09:09:56;;;;;;;13.43;10.23;;;13.30;46.60;;;;;;4993317;28;20212;-54
2022/03/03 09:12:23;;;;;;;12.40;10.30;;;14.00;44.80;;;;;;4993251;28;20255;-56
2022/03/03 09:14:48;;;;;;;10.83;9.53;;;15.10;44.20;;;;;;4993100;28;20169;-56
2022/03/03 09:17:14;;;;;;;10.77;9.67;;;;;;;;;;4992811;28;20204;-57
2022/03/03 09:19:40;;;;;;;10.73;9.63;;;17.60;41.20;;;;;;4993098;28;20189;-56
2022/03/03 09:22:05;;;;;;;11.00;9.73;;;18.50;38.80;;;;;;4993122;28;20191;-56
2022/03/03 09:24:31;;;;;;;10.73;9.63;;;19.20;37.80;;;;;;4992909;28;20268;-55
2022/03/03 09:26:57;;;;;;;11.20;10.00;;;20.50;37.30;;;;;;4992684;28;20205;-54
2022/03/03 09:29:22;;;;;;;10.95;9.25;;;21.70;34.40;;;;;;4992869;28;20252;-55
2022/03/03 09:31:49;;;;;;;11.82;10.48;;;22.80;34.10;;;;;;4992923;28;20201;-56
2022/03/03 09:34:14;;;;;;;12.07;9.90;;;24.20;31.70;;;;;;4992822;28;20240;-56
2022/03/03 09:36:40;;;;;;;11.20;10.10;;;26.10;30.30;;;;;;4992551;28;20197;-57
2022/03/03 09:39:06;;;;;;;12.23;10.93;;;27.90;26.70;;;;;;4991598;28;20177;-57
2022/03/03 09:41:32;;;;;;;12.05;10.85;;;29.10;25.10;;;;;;4992332;28;20256;-57
2022/03/03 09:43:58;;;;;;;11.35;10.25;;;30.20;24.40;;;;;;4992636;28;20251;-58
2022/03/03 09:46:24;;;;;;;13.70;12.30;;;31.20;23.20;;;;;;4992221;28;20200;-52
2022/03/03 09:48:50;;;;;;;12.60;11.27;;;31.70;21.00;;;;;;4991449;28;20165;-55
2022/03/03 09:51:16;;;;;;;12.55;11.25;;;32.50;21.40;;;;;;4992872;28;20527;-57
2022/03/03 09:53:43;;;;;;;12.73;11.52;;;32.90;21.30;;;;;;4993977;28;20181;-57
2022/03/03 09:56:09;;;;;;;12.57;11.27;;;33.20;20.20;;;;;;4992764;28;20200;-56
2022/03/03 09:58:35;;;;;;;13.00;11.73;;;33.10;20.40;;;;;;5130136;22;20676;-51
2022/03/03 10:01:01;;;;;;;12.43;11.23;;;34.00;19.40;;;;;;5038077;28;20174;-51
2022/03/03 10:03:34;;;;;;;12.68;11.45;;;35.80;18.20;;;;;;5033029;28;20184;-53
2022/03/03 10:06:00;;;;;;;12.25;11.00;;;36.60;17.40;;;;;;5030921;28;20164;-51
2022/03/03 10:08:28;;;;;;;12.35;10.85;;;36.80;17.50;;;;;;5017799;28;20320;-52
2022/03/03 10:10:58;;;;;;;11.38;10.27;;;36.70;16.70;;;;;;5011839;28;20204;-51
2022/03/03 10:13:24;;;;;;;10.98;9.88;;;38.00;16.50;;;;;;5011814;28;20182;-52
2022/03/03 10:15:56;;;;;;;11.00;10.00;;;39.10;15.90;;;;;;5003321;28;20203;-54
2022/03/03 10:18:23;;;;;;;11.00;10.00;;;40.40;14.80;;;;;;5009323;28;20191;-50
2022/03/03 10:20:53;;;;;;;10.70;9.70;;;40.50;14.80;;;;;;5010368;28;20176;-51
2022/03/03 10:23:27;;;;;;;10.43;9.43;;;40.30;14.50;;;;;;5011272;28;20176;-54
2022/03/03 10:25:55;;;;;;;9.70;8.77;;;40.80;14.00;;;;;;5011004;28;20221;-52
2022/03/03 10:28:27;;;;;;;9.38;8.48;;;40.50;13.20;;;;;;5011127;28;20206;-54
2022/03/03 10:31:00;;;;;;;9.25;8.45;;;40.70;13.20;;;;;;5011264;28;20276;-56
2022/03/03 10:33:39;;;;;;;9.10;8.20;;;40.80;12.70;;;;;;5004016;28;20653;-53
2022/03/03 10:36:16;;;;;;;8.48;7.70;;;40.50;12.90;;;;;;5007691;28;20835;-55
2022/03/03 10:38:53;;;;;;;8.50;7.70;;;40.20;13.30;;;;;;5011465;28;20274;-55
2022/03/03 10:41:28;;;;;;;9.20;8.30;;;39.70;12.80;;;;;;5011515;28;20259;-53
2022/03/03 10:43:54;;;;;;;8.90;8.02;;;39.80;12.60;;;;;;5011486;28;20176;-52
2022/03/03 10:46:19;;;;;;;8.68;7.88;;;40.10;12.60;;;;;;5008779;28;20199;-56
2022/03/03 10:48:45;;;;;;;10.10;8.10;;;39.20;13.00;;;;;;5011338;28;20689;-53
2022/03/03 10:51:14;;;;;;;8.30;7.60;;;38.70;12.90;;;;;;5011457;28;20180;-53
2022/03/03 10:53:42;;;;;;;8.70;7.80;;;37.40;13.20;;;;;;5013722;28;20196;-54
2022/03/03 10:56:12;;;;;;;7.47;6.78;;;37.80;13.20;;;;;;5014966;28;20534;-54
2022/03/03 10:58:57;;;;;;;8.35;7.53;;;38.50;12.70;;;;;;5014929;28;20207;-53
2022/03/03 11:01:30;;;;;;;8.13;6.88;;;38.20;13.20;;;;;;5014963;28;20186;-55
2022/03/03 11:03:57;;;;;;;7.53;6.63;;;37.30;12.50;;;;;;5015093;28;20172;-55
2022/03/03 11:06:24;;;;;;;7.45;6.75;;;37.20;20.60;;;;;;5008407;28;20181;-54
2022/03/03 11:08:52;;;;;;;7.72;7.03;;;36.40;19.30;;;;;;5014808;28;20565;-55
2022/03/03 11:11:19;;;;;;;7.43;6.72;;;34.10;23.80;;;;;;5014781;28;20235;-57
2022/03/03 11:13:47;;;;;;;8.80;7.97;;;31.60;25.60;;;;;;5014628;28;20188;-54
2022/03/03 11:16:14;;;;;;;9.07;8.18;;;30.30;28.10;;;;;;5013965;28;20173;-55
2022/03/03 11:18:41;;;;;;;8.65;7.85;;;;;;;;;;5014263;28;20188;-55
2022/03/03 11:21:08;;;;;;;8.77;7.95;;;;;;;;;;5012652;28;20187;-54
2022/03/03 11:23:41;;;;;;;8.75;7.95;;;32.60;16.30;;;;;;5018409;28;20176;-58
2022/03/03 11:26:09;;;;;;;8.90;8.10;;;32.80;24.70;;;;;;5026035;28;20676;-53
2022/03/03 11:28:36;;;;;;;8.95;8.15;;;32.70;21.50;;;;;;5008641;28;20193;-54
2022/03/03 11:31:30;;;;;;;9.15;8.25;;;32.60;17.00;;;;;;5013926;28;20180;-54
2022/03/03 11:34:30;;;;;;;8.95;8.05;;;33.80;19.50;;;;;;5012911;28;20224;-53
2022/03/03 11:37:03;;;;;;;9.60;8.70;;;34.30;15.10;;;;;;5013061;28;20259;-54
2022/03/03 11:39:52;;;;;;;8.55;7.47;;;34.00;15.00;;;;;;5014002;28;20255;-54
2022/03/03 11:42:35;;;;;;;8.30;7.50;;;34.70;14.60;;;;;;5012541;28;20177;-56
2022/03/03 11:45:17;;;;;;;7.30;6.60;;;34.80;14.20;;;;;;5013078;28;20173;-56
2022/03/03 11:47:47;;;;;;;7.03;6.32;;;32.80;18.70;;;;;;5014036;28;20200;-55
2022/03/03 11:50:24;;;;;;;6.85;6.25;;;30.10;15.50;;;;;;5011695;28;20183;-53
2022/03/03 11:53:19;;;;;;;7.10;6.40;;;29.00;20.80;;;;;;5023304;28;20168;-53
2022/03/03 11:55:56;;;;;;;8.05;7.00;;;27.80;21.50;;;;;;5020301;28;20196;-50
2022/03/03 11:58:36;;;;;;;6.97;6.38;;;27.70;22.20;;;;;;5013805;28;20212;-52
2022/03/03 12:01:05;;;;;;;8.20;7.22;;;;;;;;;;5014186;28;20599;-57
2022/03/03 12:03:50;;;;;;;8.10;7.40;;;26.40;25.30;;;;;;5013596;28;20255;-56
2022/03/03 12:06:16;;;;;;;9.35;7.47;;;25.60;26.30;;;;;;5014151;28;20169;-53
2022/03/03 12:08:43;;;;;;;7.82;7.13;;;26.70;23.10;;;;;;5014259;28;20539;-53
2022/03/03 12:11:10;;;;;;;8.02;7.28;;;27.40;21.00;;;;;;5014653;28;20196;-52
2022/03/03 12:13:38;;;;;;;8.50;7.63;;;25.70;23.50;;;;;;5014213;28;20668;-52
2022/03/03 12:16:33;;;;;;;8.55;7.75;;;24.60;24.80;;;;;;5009037;28;20546;-53
2022/03/03 12:19:02;;;;;;;7.70;6.90;;;24.10;24.70;;;;;;5008391;28;20266;-53
2022/03/03 12:21:38;;;;;;;8.98;8.07;;;24.60;22.10;;;;;;5014036;28;20184;-54
2022/03/03 12:24:13;;;;;;;8.43;7.43;;;24.40;20.30;;;;;;5013900;28;20183;-56
2022/03/03 12:26:56;;;;;;;9.10;7.90;;;24.20;23.20;;;;;;5013581;28;20255;-56
2022/03/03 12:29:33;;;;;;;8.20;7.25;;;25.00;22.00;;;;;;5013574;28;20227;-55
2022/03/03 12:32:25;;;;;;;8.32;7.53;;;24.80;22.40;;;;;;5013910;28;20519;-55
2022/03/03 12:34:53;;;;;;;9.52;8.00;;;24.10;20.10;;;;;;5013584;28;20192;-51
2022/03/03 12:37:18;;;;;;;9.60;8.18;;;22.90;21.50;;;;;;5013070;28;20215;-56
2022/03/03 12:39:51;;;;;;;8.95;8.05;;;22.00;21.50;;;;;;5013787;28;20177;-49
2022/03/03 12:42:26;;;;;;;8.80;8.00;;;21.40;21.80;;;;;;5013692;28;20264;-53
2022/03/03 12:44:59;;;;;;;8.80;7.90;;;21.30;21.90;;;;;;5013314;28;20262;-52
2022/03/03 12:47:46;;;;;;;9.32;7.75;;;21.20;25.50;;;;;;5013010;28;20675;-56
2022/03/03 12:50:23;;;;;;;8.30;7.50;;;22.00;24.10;;;;;;5013319;28;20173;-53
2022/03/03 12:53:13;;;;;;;8.15;7.35;;;22.10;24.00;;;;;;5013250;28;20176;-54